CKC4 weather

K. Coffey Residence Helipad
Calgary, Alberta, Canada

Public forecast

Using degrees Celsius for public forecast. Weather courtesy of forecast.io.

Closest aviation weather report (METAR) to K. Coffey Residence Helipad

Closest report is Calgary / Springbank Airport, 4.4 nm (8.1 km) SSW. Retrieved 2019/12/08 07:00 UTC (41 minutes ago):

CYBW 080700Z AUTO 06009KT 1SM R35/P6000FT/N -SN OVC004 M11/M12 A2980 RMK SLP164

Closest aviation forecast (TAF) to K. Coffey Residence Helipad

Forecast is more than 6 hours old.

Closest forecast is Calgary / Springbank Airport, 4.4 nm (8.1 km) SSW. Retrieved 2019-12-08 00:00 UTC (8 hours ago):

TAF CYBW 072338Z 0800/0805 04006KT 3SM -SN -FZDZ BR OVC006 TEMPO 0800/0802 6SM -SN OVC010 FM080200 04005KT 6SM -SN OVC010 TEMPO 0802/0805 2SM -SN BR OVC006 RMK FCST BASED ON AUTO OBS NXT FCST WILL BE ISSUED AT 081245Z